createdAt,value
2023-01-17T00:55:04.113Z,0.40
2023-01-17T00:58:28.019Z,0.80
2023-01-17T01:01:48.004Z,0.60
2023-01-17T01:05:08.097Z,0.60
2023-01-17T01:08:57.274Z,0.80
2023-01-17T01:12:17.304Z,0.88
2023-01-17T01:15:37.144Z,0.90
2023-01-17T01:18:56.957Z,0.82
2023-01-17T01:22:16.942Z,0.90
2023-01-17T01:25:37.156Z,0.70
2023-01-17T01:28:57.024Z,0.70
2023-01-17T01:32:16.796Z,0.70
2023-01-17T01:35:18.405Z,0.75
2023-01-17T01:38:22.584Z,0.55
2023-01-17T01:41:24.105Z,0.70
2023-01-17T01:44:51.369Z,0.60
2023-01-17T01:48:06.913Z,0.70
2023-01-17T01:51:13.367Z,0.60
2023-01-17T01:54:20.673Z,0.63
2023-01-17T01:57:26.511Z,0.73
2023-01-17T02:00:36.169Z,0.57
2023-01-17T02:03:40.887Z,0.60
2023-01-17T02:06:47.554Z,0.60
2023-01-17T02:09:49.993Z,0.50
2023-01-17T02:12:53.173Z,0.75
2023-01-17T02:15:58.049Z,0.60
2023-01-17T02:19:14.117Z,0.60
2023-01-17T02:22:34.286Z,0.50
2023-01-17T02:26:04.641Z,0.60
2023-01-17T02:29:42.602Z,0.40
2023-01-17T02:32:46.927Z,0.60
2023-01-17T02:36:05.479Z,0.50
2023-01-17T02:39:15.768Z,0.60
2023-01-17T02:42:21.147Z,0.50
2023-01-17T02:45:22.791Z,0.60
2023-01-17T02:48:26.979Z,0.50
2023-01-17T02:51:51.920Z,0.40
2023-01-17T02:55:12.309Z,0.30
2023-01-17T02:58:32.690Z,0.40
2023-01-17T03:02:06.504Z,0.43
2023-01-17T03:05:17.040Z,0.40
2023-01-17T03:08:19.381Z,0.40
2023-01-17T03:11:21.054Z,0.40
2023-01-17T03:14:22.509Z,0.40
2023-01-17T03:17:26.685Z,0.22
2023-01-17T03:20:28.195Z,0.30
2023-01-17T03:23:29.663Z,0.50
2023-01-17T03:26:31.696Z,0.30
2023-01-17T03:29:33.209Z,0.40
2023-01-17T03:32:34.743Z,0.22
2023-01-17T03:35:36.260Z,0.30
2023-01-17T03:38:37.932Z,0.32
2023-01-17T03:41:39.484Z,0.43
2023-01-17T03:44:40.977Z,0.50
